sensor_id;sensor_type;location;lat;lon;timestamp;pressure;altitude;pressure_sealevel;temperature;humidity
14253;BME280;7210;51.502;10.722;2023-09-18T00:02:19;99138.59;;;16.23;100.00
14253;BME280;7210;51.502;10.722;2023-09-18T00:05:30;99139.69;;;16.17;100.00
14253;BME280;7210;51.502;10.722;2023-09-18T00:07:57;99132.75;;;16.16;100.00
14253;BME280;7210;51.502;10.722;2023-09-18T00:10:26;99125.53;;;16.17;100.00
14253;BME280;7210;51.502;10.722;2023-09-18T00:12:54;99123.63;;;16.22;100.00
14253;BME280;7210;51.502;10.722;2023-09-18T00:15:24;99122.56;;;16.23;100.00
14253;BME280;7210;51.502;10.722;2023-09-18T00:17:53;99128.44;;;16.20;100.00
14253;BME280;7210;51.502;10.722;2023-09-18T00:20:21;99110.59;;;16.11;100.00
14253;BME280;7210;51.502;10.722;2023-09-18T00:23:13;99120.97;;;16.22;100.00
14253;BME280;7210;51.502;10.722;2023-09-18T00:25:47;99112.69;;;16.19;100.00
14253;BME280;7210;51.502;10.722;2023-09-18T00:28:14;99106.06;;;16.16;100.00
14253;BME280;7210;51.502;10.722;2023-09-18T00:30:53;99104.22;;;16.12;100.00
14253;BME280;7210;51.502;10.722;2023-09-18T00:33:21;99097.03;;;16.07;100.00
14253;BME280;7210;51.502;10.722;2023-09-18T00:35:54;99102.34;;;16.07;100.00
14253;BME280;7210;51.502;10.722;2023-09-18T00:38:23;99097.59;;;16.04;100.00
14253;BME280;7210;51.502;10.722;2023-09-18T00:40:50;99085.34;;;15.98;100.00
14253;BME280;7210;51.502;10.722;2023-09-18T00:43:23;99076.31;;;15.94;100.00
14253;BME280;7210;51.502;10.722;2023-09-18T00:45:50;99074.16;;;15.91;100.00
14253;BME280;7210;51.502;10.722;2023-09-18T00:48:19;99070.47;;;15.87;100.00
14253;BME280;7210;51.502;10.722;2023-09-18T00:50:48;99063.81;;;15.85;100.00
14253;BME280;7210;51.502;10.722;2023-09-18T00:53:23;99066.72;;;15.83;100.00
14253;BME280;7210;51.502;10.722;2023-09-18T00:55:56;99059.28;;;15.80;100.00
14253;BME280;7210;51.502;10.722;2023-09-18T00:58:26;99059.03;;;15.77;100.00
14253;BME280;7210;51.502;10.722;2023-09-18T01:00:53;99052.38;;;15.74;100.00
14253;BME280;7210;51.502;10.722;2023-09-18T01:03:35;99058.00;;;15.73;100.00
14253;BME280;7210;51.502;10.722;2023-09-18T01:06:03;99057.75;;;15.69;100.00
14253;BME280;7210;51.502;10.722;2023-09-18T01:08:32;99048.69;;;15.65;100.00
14253;BME280;7210;51.502;10.722;2023-09-18T01:11:09;99044.69;;;15.68;100.00
14253;BME280;7210;51.502;10.722;2023-09-18T01:13:49;99045.47;;;15.68;100.00
14253;BME280;7210;51.502;10.722;2023-09-18T01:16:25;99040.13;;;15.68;100.00
14253;BME280;7210;51.502;10.722;2023-09-18T01:18:54;99034.28;;;15.66;100.00
14253;BME280;7210;51.502;10.722;2023-09-18T01:21:23;99028.44;;;15.64;100.00
14253;BME280;7210;51.502;10.722;2023-09-18T01:24:06;99035.91;;;15.62;100.00
14253;BME280;7210;51.502;10.722;2023-09-18T01:26:35;99023.69;;;15.56;100.00
14253;BME280;7210;51.502;10.722;2023-09-18T01:29:02;99013.59;;;15.48;100.00
14253;BME280;7210;51.502;10.722;2023-09-18T01:31:30;99030.03;;;15.65;100.00
14253;BME280;7210;51.502;10.722;2023-09-18T01:33:58;99027.38;;;15.65;100.00
14253;BME280;7210;51.502;10.722;2023-09-18T01:36:26;99031.88;;;15.65;100.00
14253;BME280;7210;51.502;10.722;2023-09-18T01:39:13;99023.13;;;15.64;100.00
14253;BME280;7210;51.502;10.722;2023-09-18T01:41:43;99016.72;;;15.60;100.00
14253;BME280;7210;51.502;10.722;2023-09-18T01:44:10;99014.88;;;15.56;100.00
14253;BME280;7210;51.502;10.722;2023-09-18T01:46:38;98997.59;;;15.43;100.00
14253;BME280;7210;51.502;10.722;2023-09-18T01:49:06;99016.75;;;15.50;100.00
14253;BME280;7210;51.502;10.722;2023-09-18T01:51:41;99020.50;;;15.49;100.00
14253;BME280;7210;51.502;10.722;2023-09-18T01:54:08;99014.09;;;15.45;100.00
14253;BME280;7210;51.502;10.722;2023-09-18T01:56:37;99009.34;;;15.42;100.00
14253;BME280;7210;51.502;10.722;2023-09-18T01:59:05;98998.41;;;15.39;100.00
14253;BME280;7210;51.502;10.722;2023-09-18T02:01:32;98999.75;;;15.36;100.00
14253;BME280;7210;51.502;10.722;2023-09-18T02:04:11;98981.66;;;15.28;100.00
14253;BME280;7210;51.502;10.722;2023-09-18T02:06:39;98955.63;;;15.11;100.00
14253;BME280;7210;51.502;10.722;2023-09-18T02:09:07;98988.06;;;15.32;100.00
14253;BME280;7210;51.502;10.722;2023-09-18T02:11:38;98995.00;;;15.33;100.00
14253;BME280;7210;51.502;10.722;2023-09-18T02:14:41;99002.72;;;15.35;100.00
14253;BME280;7210;51.502;10.722;2023-09-18T02:17:11;98997.66;;;15.33;100.00
14253;BME280;7210;51.502;10.722;2023-09-18T02:19:38;98990.19;;;15.30;100.00
14253;BME280;7210;51.502;10.722;2023-09-18T02:22:06;98982.19;;;15.25;100.00
14253;BME280;7210;51.502;10.722;2023-09-18T02:24:47;98978.75;;;15.20;100.00
14253;BME280;7210;51.502;10.722;2023-09-18T02:27:16;98949.78;;;14.99;100.00
14253;BME280;7210;51.502;10.722;2023-09-18T02:29:45;98977.97;;;15.14;100.00
14253;BME280;7210;51.502;10.722;2023-09-18T02:32:17;98980.88;;;15.18;100.00
14253;BME280;7210;51.502;10.722;2023-09-18T02:34:53;98879.66;;;14.45;100.00
14253;BME280;7210;51.502;10.722;2023-09-18T02:37:23;98986.50;;;15.17;100.00
14253;BME280;7210;51.502;10.722;2023-09-18T02:39:51;98990.78;;;15.08;100.00
14253;BME280;7210;51.502;10.722;2023-09-18T02:42:25;98974.53;;;14.99;100.00
14253;BME280;7210;51.502;10.722;2023-09-18T02:44:53;98971.63;;;14.96;100.00
14253;BME280;7210;51.502;10.722;2023-09-18T02:47:29;98974.84;;;14.93;100.00
14253;BME280;7210;51.502;10.722;2023-09-18T02:49:59;98968.97;;;14.91;100.00
14253;BME280;7210;51.502;10.722;2023-09-18T02:52:26;98969.50;;;14.88;100.00
14253;BME280;7210;51.502;10.722;2023-09-18T02:54:55;98957.56;;;14.80;100.00
14253;BME280;7210;51.502;10.722;2023-09-18T02:57:23;98958.09;;;14.77;100.00
14253;BME280;7210;51.502;10.722;2023-09-18T02:59:59;98952.50;;;14.74;100.00
14253;BME280;7210;51.502;10.722;2023-09-18T03:02:29;98955.19;;;14.69;100.00
14253;BME280;7210;51.502;10.722;2023-09-18T03:05:06;98924.88;;;14.50;100.00
14253;BME280;7210;51.502;10.722;2023-09-18T03:07:35;98947.22;;;14.69;100.00
14253;BME280;7210;51.502;10.722;2023-09-18T03:10:04;98939.75;;;14.66;100.00
14253;BME280;7210;51.502;10.722;2023-09-18T03:12:37;98948.50;;;14.71;100.00
14253;BME280;7210;51.502;10.722;2023-09-18T03:15:06;98949.31;;;14.72;100.00
14253;BME280;7210;51.502;10.722;2023-09-18T03:17:35;98949.31;;;14.72;100.00
14253;BME280;7210;51.502;10.722;2023-09-18T03:20:03;98946.41;;;14.68;100.00
14253;BME280;7210;51.502;10.722;2023-09-18T03:22:47;98948.25;;;14.78;100.00
14253;BME280;7210;51.502;10.722;2023-09-18T03:25:24;98941.84;;;14.74;100.00
14253;BME280;7210;51.502;10.722;2023-09-18T03:27:54;98938.16;;;14.70;100.00
14253;BME280;7210;51.502;10.722;2023-09-18T03:30:29;98933.91;;;14.69;100.00
14253;BME280;7210;51.502;10.722;2023-09-18T03:32:57;98897.75;;;14.43;100.00
14253;BME280;7210;51.502;10.722;2023-09-18T03:35:46;98930.44;;;14.63;100.00
14253;BME280;7210;51.502;10.722;2023-09-18T03:38:17;98929.63;;;14.68;100.00
14253;BME280;7210;51.502;10.722;2023-09-18T03:41:00;98911.31;;;14.51;100.00
14253;BME280;7210;51.502;10.722;2023-09-18T03:43:29;98915.81;;;14.61;100.00
14253;BME280;7210;51.502;10.722;2023-09-18T03:46:04;98903.03;;;14.63;100.00
14253;BME280;7210;51.502;10.722;2023-09-18T03:48:34;98899.31;;;14.69;100.00
14253;BME280;7210;51.502;10.722;2023-09-18T03:51:04;98789.28;;;14.10;100.00
14253;BME280;7210;51.502;10.722;2023-09-18T03:53:32;98885.72;;;14.70;100.00
14253;BME280;7210;51.502;10.722;2023-09-18T03:56:05;98878.53;;;14.71;100.00
14253;BME280;7210;51.502;10.722;2023-09-18T03:58:36;98876.66;;;14.71;100.00
14253;BME280;7210;51.502;10.722;2023-09-18T04:01:04;98870.00;;;14.74;100.00
14253;BME280;7210;51.502;10.722;2023-09-18T04:03:31;98868.41;;;14.73;100.00
14253;BME280;7210;51.502;10.722;2023-09-18T04:05:59;98866.84;;;14.67;100.00
14253;BME280;7210;51.502;10.722;2023-09-18T04:08:29;98867.69;;;14.57;100.00
14253;BME280;7210;51.502;10.722;2023-09-18T04:10:59;98805.50;;;14.08;100.00
14253;BME280;7210;51.502;10.722;2023-09-18T04:13:27;98865.31;;;14.41;100.00
14253;BME280;7210;51.502;10.722;2023-09-18T04:15:56;98866.63;;;14.38;100.00
14253;BME280;7210;51.502;10.722;2023-09-18T04:18:47;98827.59;;;14.19;100.00
14253;BME280;7210;51.502;10.722;2023-09-18T04:21:23;98849.34;;;14.36;100.00
14253;BME280;7210;51.502;10.722;2023-09-18T04:23:51;98858.91;;;14.42;100.00
14253;BME280;7210;51.502;10.722;2023-09-18T04:26:23;98855.72;;;14.45;100.00
14253;BME280;7210;51.502;10.722;2023-09-18T04:28:55;98855.19;;;14.43;100.00
14253;BME280;7210;51.502;10.722;2023-09-18T04:31:24;98839.78;;;14.40;100.00
14253;BME280;7210;51.502;10.722;2023-09-18T04:33:51;98838.72;;;14.36;100.00
14253;BME280;7210;51.502;10.722;2023-09-18T04:36:19;98836.09;;;14.31;100.00
14253;BME280;7210;51.502;10.722;2023-09-18T04:38:46;98833.69;;;14.34;100.00
14253;BME280;7210;51.502;10.722;2023-09-18T04:41:14;98829.69;;;14.32;100.00
14253;BME280;7210;51.502;10.722;2023-09-18T04:43:41;98819.06;;;14.27;100.00
14253;BME280;7210;51.502;10.722;2023-09-18T04:46:11;98814.28;;;14.24;100.00
14253;BME280;7210;51.502;10.722;2023-09-18T04:48:41;98813.22;;;14.25;100.00
14253;BME280;7210;51.502;10.722;2023-09-18T04:51:17;98803.91;;;14.27;100.00
14253;BME280;7210;51.502;10.722;2023-09-18T04:53:47;98790.88;;;14.26;100.00
14253;BME280;7210;51.502;10.722;2023-09-18T04:56:14;98794.88;;;14.23;100.00
14253;BME280;7210;51.502;10.722;2023-09-18T04:58:42;98757.41;;;13.95;100.00
14253;BME280;7210;51.502;10.722;2023-09-18T05:01:09;98786.34;;;14.16;100.00
14253;BME280;7210;51.502;10.722;2023-09-18T05:03:42;98776.81;;;14.20;100.00
14253;BME280;7210;51.502;10.722;2023-09-18T05:06:11;98769.59;;;14.11;100.00
14253;BME280;7210;51.502;10.722;2023-09-18T05:08:42;98795.13;;;14.22;100.00
14253;BME280;7210;51.502;10.722;2023-09-18T05:11:09;98762.19;;;14.08;100.00
14253;BME280;7210;51.502;10.722;2023-09-18T05:13:36;98741.47;;;13.95;100.00
14253;BME280;7210;51.502;10.722;2023-09-18T05:16:05;98791.94;;;14.20;100.00
14253;BME280;7210;51.502;10.722;2023-09-18T05:18:32;98811.59;;;14.29;100.00
14253;BME280;7210;51.502;10.722;2023-09-18T05:21:08;98841.38;;;14.41;100.00
14253;BME280;7210;51.502;10.722;2023-09-18T05:23:38;98832.03;;;14.48;100.00
14253;BME280;7210;51.502;10.722;2023-09-18T05:26:08;98832.84;;;14.54;100.00
14253;BME280;7210;51.502;10.722;2023-09-18T05:28:41;98832.78;;;14.64;100.00
14253;BME280;7210;51.502;10.722;2023-09-18T05:31:08;98814.69;;;14.71;100.00
14253;BME280;7210;51.502;10.722;2023-09-18T05:33:39;98811.97;;;14.86;100.00
14253;BME280;7210;51.502;10.722;2023-09-18T05:36:14;98820.16;;;14.94;100.00
14253;BME280;7210;51.502;10.722;2023-09-18T05:38:41;98818.75;;;15.07;100.00
14253;BME280;7210;51.502;10.722;2023-09-18T05:41:10;98814.50;;;15.11;100.00
14253;BME280;7210;51.502;10.722;2023-09-18T05:43:41;98825.84;;;15.31;100.00
14253;BME280;7210;51.502;10.722;2023-09-18T05:46:08;98820.16;;;15.47;100.00
14253;BME280;7210;51.502;10.722;2023-09-18T05:48:36;98825.66;;;15.61;100.00
14253;BME280;7210;51.502;10.722;2023-09-18T05:51:04;98817.81;;;15.74;100.00
14253;BME280;7210;51.502;10.722;2023-09-18T05:53:36;98811.28;;;15.90;100.00
14253;BME280;7210;51.502;10.722;2023-09-18T05:56:04;98798.88;;;16.04;100.00
14253;BME280;7210;51.502;10.722;2023-09-18T05:58:31;98794.00;;;16.16;100.00
14253;BME280;7210;51.502;10.722;2023-09-18T06:00:59;98784.22;;;16.30;100.00
14253;BME280;7210;51.502;10.722;2023-09-18T06:03:26;98777.16;;;16.44;100.00
14253;BME280;7210;51.502;10.722;2023-09-18T06:05:56;98783.41;;;16.58;100.00
14253;BME280;7210;51.502;10.722;2023-09-18T06:08:23;98792.38;;;16.67;100.00
14253;BME280;7210;51.502;10.722;2023-09-18T06:10:53;98792.13;;;16.87;100.00
14253;BME280;7210;51.502;10.722;2023-09-18T06:13:21;98791.22;;;16.97;100.00
14253;BME280;7210;51.502;10.722;2023-09-18T06:15:59;98770.69;;;16.92;100.00
14253;BME280;7210;51.502;10.722;2023-09-18T06:18:33;98776.84;;;17.11;100.00
14253;BME280;7210;51.502;10.722;2023-09-18T06:21:11;98777.28;;;17.18;100.00
14253;BME280;7210;51.502;10.722;2023-09-18T06:23:41;98769.75;;;17.20;100.00
14253;BME280;7210;51.502;10.722;2023-09-18T06:26:10;98772.94;;;17.22;100.00
14253;BME280;7210;51.502;10.722;2023-09-18T06:28:37;98772.94;;;17.22;100.00
14253;BME280;7210;51.502;10.722;2023-09-18T06:31:05;98754.53;;;17.21;100.00
14253;BME280;7210;51.502;10.722;2023-09-18T06:33:35;98741.47;;;17.19;100.00
14253;BME280;7210;51.502;10.722;2023-09-18T06:36:06;98710.00;;;17.16;100.00
14253;BME280;7210;51.502;10.722;2023-09-18T06:38:33;98725.47;;;17.33;100.00
14253;BME280;7210;51.502;10.722;2023-09-18T06:41:00;98729.63;;;17.44;100.00
14253;BME280;7210;51.502;10.722;2023-09-18T06:43:31;98739.88;;;17.55;100.00
14253;BME280;7210;51.502;10.722;2023-09-18T06:45:58;98749.78;;;17.68;100.00
14253;BME280;7210;51.502;10.722;2023-09-18T06:48:29;98734.38;;;17.79;100.00
14253;BME280;7210;51.502;10.722;2023-09-18T06:51:05;98724.88;;;17.86;100.00
14253;BME280;7210;51.502;10.722;2023-09-18T06:53:33;98728.53;;;17.90;100.00
14253;BME280;7210;51.502;10.722;2023-09-18T06:56:04;98719.16;;;17.93;100.00
14253;BME280;7210;51.502;10.722;2023-09-18T06:58:33;98698.53;;;17.93;100.00
14253;BME280;7210;51.502;10.722;2023-09-18T07:01:00;98702.00;;;17.94;100.00
14253;BME280;7210;51.502;10.722;2023-09-18T07:03:47;98693.78;;;17.90;100.00
14253;BME280;7210;51.502;10.722;2023-09-18T07:06:17;98681.00;;;17.87;100.00
14253;BME280;7210;51.502;10.722;2023-09-18T07:08:47;98693.56;;;18.00;100.00
14253;BME280;7210;51.502;10.722;2023-09-18T07:11:17;98702.13;;;18.02;100.00
14253;BME280;7210;51.502;10.722;2023-09-18T07:13:46;98697.34;;;17.99;100.00
14253;BME280;7210;51.502;10.722;2023-09-18T07:16:14;98693.09;;;17.98;100.00
14253;BME280;7210;51.502;10.722;2023-09-18T07:18:53;98684.09;;;17.94;100.00
14253;BME280;7210;51.502;10.722;2023-09-18T07:21:29;98689.94;;;17.96;100.00
14253;BME280;7210;51.502;10.722;2023-09-18T07:23:57;98695.75;;;17.98;100.00
14253;BME280;7210;51.502;10.722;2023-09-18T07:26:44;98716.38;;;17.98;100.00
14253;BME280;7210;51.502;10.722;2023-09-18T07:29:14;98705.50;;;17.94;100.00
14253;BME280;7210;51.502;10.722;2023-09-18T07:31:42;98697.13;;;17.82;100.00
14253;BME280;7210;51.502;10.722;2023-09-18T07:34:10;98747.50;;;18.07;100.00
14253;BME280;7210;51.502;10.722;2023-09-18T07:36:53;98715.66;;;17.92;100.00
14253;BME280;7210;51.502;10.722;2023-09-18T07:39:22;98756.63;;;18.20;100.00
14253;BME280;7210;51.502;10.722;2023-09-18T07:41:49;98772.53;;;18.30;100.00
14253;BME280;7210;51.502;10.722;2023-09-18T07:44:21;98780.97;;;18.37;100.00
14253;BME280;7210;51.502;10.722;2023-09-18T07:46:49;98787.72;;;18.48;100.00
14253;BME280;7210;51.502;10.722;2023-09-18T07:49:29;98795.34;;;18.54;100.00
14253;BME280;7210;51.502;10.722;2023-09-18T07:51:57;98795.34;;;18.68;100.00
14253;BME280;7210;51.502;10.722;2023-09-18T07:54:24;98794.94;;;18.74;100.00
14253;BME280;7210;51.502;10.722;2023-09-18T07:56:51;98811.69;;;18.93;100.00
14253;BME280;7210;51.502;10.722;2023-09-18T07:59:20;98813.28;;;19.08;100.00
14253;BME280;7210;51.502;10.722;2023-09-18T08:01:47;98820.69;;;19.24;100.00
14253;BME280;7210;51.502;10.722;2023-09-18T08:04:17;98819.25;;;19.40;100.00
14253;BME280;7210;51.502;10.722;2023-09-18T08:06:45;98836.00;;;19.59;100.00
14253;BME280;7210;51.502;10.722;2023-09-18T08:09:17;98850.16;;;19.73;100.00
14253;BME280;7210;51.502;10.722;2023-09-18T08:11:47;98853.41;;;19.83;100.00
14253;BME280;7210;51.502;10.722;2023-09-18T08:14:15;98860.66;;;19.83;100.00
14253;BME280;7210;51.502;10.722;2023-09-18T08:16:44;98862.50;;;19.96;100.00
14253;BME280;7210;51.502;10.722;2023-09-18T08:19:23;98869.69;;;20.09;100.00
14253;BME280;7210;51.502;10.722;2023-09-18T08:21:53;98882.75;;;20.24;100.00
14253;BME280;7210;51.502;10.722;2023-09-18T08:24:22;98887.44;;;20.40;100.00
14253;BME280;7210;51.502;10.722;2023-09-18T08:26:59;98891.63;;;20.55;100.00
14253;BME280;7210;51.502;10.722;2023-09-18T08:29:27;98905.47;;;20.70;100.00
14253;BME280;7210;51.502;10.722;2023-09-18T08:31:55;98894.25;;;20.77;100.00
14253;BME280;7210;51.502;10.722;2023-09-18T08:34:22;98898.22;;;20.79;100.00
14253;BME280;7210;51.502;10.722;2023-09-18T08:36:50;98891.03;;;20.88;100.00
14253;BME280;7210;51.502;10.722;2023-09-18T08:39:17;98910.66;;;20.97;99.15
14253;BME280;7210;51.502;10.722;2023-09-18T08:41:54;98909.13;;;21.05;98.25
14253;BME280;7210;51.502;10.722;2023-09-18T08:44:27;98923.97;;;21.11;97.57
14253;BME280;7210;51.502;10.722;2023-09-18T08:46:56;98924.16;;;21.14;97.12
14253;BME280;7210;51.502;10.722;2023-09-18T08:49:24;98935.53;;;21.11;96.25
14253;BME280;7210;51.502;10.722;2023-09-18T08:51:54;98946.00;;;21.13;95.41
14253;BME280;7210;51.502;10.722;2023-09-18T08:54:22;98964.19;;;21.16;94.60
14253;BME280;7210;51.502;10.722;2023-09-18T08:56:50;98981.66;;;21.27;94.69
14253;BME280;7210;51.502;10.722;2023-09-18T08:59:21;98959.34;;;21.26;94.23
14253;BME280;7210;51.502;10.722;2023-09-18T09:01:55;98973.63;;;21.44;93.65
14253;BME280;7210;51.502;10.722;2023-09-18T09:04:22;98994.88;;;21.54;92.69
14253;BME280;7210;51.502;10.722;2023-09-18T09:06:49;98999.38;;;21.67;92.02
14253;BME280;7210;51.502;10.722;2023-09-18T09:09:17;99012.19;;;21.70;91.34
14253;BME280;7210;51.502;10.722;2023-09-18T09:11:49;99038.69;;;21.85;90.38
14253;BME280;7210;51.502;10.722;2023-09-18T09:14:17;99048.38;;;22.03;89.87
14253;BME280;7210;51.502;10.722;2023-09-18T09:16:48;99046.19;;;22.05;88.64
14253;BME280;7210;51.502;10.722;2023-09-18T09:19:28;99075.50;;;22.23;87.88
14253;BME280;7210;51.502;10.722;2023-09-18T09:21:57;99076.31;;;22.41;87.23
14253;BME280;7210;51.502;10.722;2023-09-18T09:24:44;99078.41;;;22.52;86.12
14253;BME280;7210;51.502;10.722;2023-09-18T09:27:11;99090.13;;;22.65;85.53
14253;BME280;7210;51.502;10.722;2023-09-18T09:29:40;99088.09;;;22.62;85.02
14253;BME280;7210;51.502;10.722;2023-09-18T09:32:16;99097.44;;;22.64;84.85
14253;BME280;7210;51.502;10.722;2023-09-18T09:34:46;99103.78;;;22.68;84.38
14253;BME280;7210;51.502;10.722;2023-09-18T09:37:17;99099.16;;;22.77;84.02
14253;BME280;7210;51.502;10.722;2023-09-18T09:39:52;99104.72;;;22.89;83.46
14253;BME280;7210;51.502;10.722;2023-09-18T09:42:23;99106.78;;;23.01;82.99
14253;BME280;7210;51.502;10.722;2023-09-18T09:45:11;99081.22;;;23.07;81.67
14253;BME280;7210;51.502;10.722;2023-09-18T09:47:40;99098.53;;;23.23;80.55
14253;BME280;7210;51.502;10.722;2023-09-18T09:50:14;99120.63;;;23.62;79.85
14253;BME280;7210;51.502;10.722;2023-09-18T09:52:50;99116.28;;;23.87;78.84
14253;BME280;7210;51.502;10.722;2023-09-18T09:55:28;99114.44;;;24.07;77.30
14253;BME280;7210;51.502;10.722;2023-09-18T09:58:01;99141.25;;;24.41;76.28
14253;BME280;7210;51.502;10.722;2023-09-18T10:00:32;99102.84;;;24.48;74.22
14253;BME280;7210;51.502;10.722;2023-09-18T10:03:05;99099.50;;;24.30;72.82
14253;BME280;7210;51.502;10.722;2023-09-18T10:05:39;99133.72;;;24.47;72.41
14253;BME280;7210;51.502;10.722;2023-09-18T10:08:22;99141.50;;;24.48;71.63
14253;BME280;7210;51.502;10.722;2023-09-18T10:11:08;99184.38;;;24.67;72.07
14253;BME280;7210;51.502;10.722;2023-09-18T10:13:42;99185.09;;;24.76;71.06
14253;BME280;7210;51.502;10.722;2023-09-18T10:16:14;99190.78;;;24.83;70.51
14253;BME280;7210;51.502;10.722;2023-09-18T10:18:55;99222.59;;;25.06;70.28
14253;BME280;7210;51.502;10.722;2023-09-18T10:21:41;99177.97;;;25.33;68.56
14253;BME280;7210;51.502;10.722;2023-09-18T10:24:19;99176.06;;;25.33;68.11
14253;BME280;7210;51.502;10.722;2023-09-18T10:26:57;99203.91;;;25.54;67.25
14253;BME280;7210;51.502;10.722;2023-09-18T10:29:26;99153.25;;;25.22;67.17
14253;BME280;7210;51.502;10.722;2023-09-18T10:32:07;99220.84;;;25.63;66.97
14253;BME280;7210;51.502;10.722;2023-09-18T10:34:43;99193.31;;;25.61;65.99
14253;BME280;7210;51.502;10.722;2023-09-18T10:37:14;99197.59;;;25.62;66.04
14253;BME280;7210;51.502;10.722;2023-09-18T10:39:42;99160.50;;;25.42;65.24
14253;BME280;7210;51.502;10.722;2023-09-18T10:42:20;99169.97;;;25.36;65.29
14253;BME280;7210;51.502;10.722;2023-09-18T10:44:49;99183.50;;;25.36;65.34
14253;BME280;7210;51.502;10.722;2023-09-18T10:47:17;99198.81;;;25.53;65.39
14253;BME280;7210;51.502;10.722;2023-09-18T10:49:54;99183.09;;;25.46;65.18
14253;BME280;7210;51.502;10.722;2023-09-18T10:52:23;99152.25;;;25.27;64.49
14253;BME280;7210;51.502;10.722;2023-09-18T10:54:51;99154.47;;;25.25;64.50
14253;BME280;7210;51.502;10.722;2023-09-18T10:57:18;99155.28;;;25.25;64.45
14253;BME280;7210;51.502;10.722;2023-09-18T10:59:54;99179.44;;;25.30;64.59
14253;BME280;7210;51.502;10.722;2023-09-18T11:02:22;99156.56;;;25.19;64.12
14253;BME280;7210;51.502;10.722;2023-09-18T11:04:53;99203.38;;;25.40;64.43
14253;BME280;7210;51.502;10.722;2023-09-18T11:07:23;99198.94;;;25.56;63.96
14253;BME280;7210;51.502;10.722;2023-09-18T11:09:53;99195.16;;;25.81;63.13
14253;BME280;7210;51.502;10.722;2023-09-18T11:12:44;99172.22;;;25.67;62.81
14253;BME280;7210;51.502;10.722;2023-09-18T11:15:26;99162.56;;;25.45;62.47
14253;BME280;7210;51.502;10.722;2023-09-18T11:18:00;99146.03;;;25.26;62.68
14253;BME280;7210;51.502;10.722;2023-09-18T11:20:28;99164.53;;;25.24;62.81
14253;BME280;7210;51.502;10.722;2023-09-18T11:22:59;99197.78;;;25.25;63.43
14253;BME280;7210;51.502;10.722;2023-09-18T11:25:38;99233.38;;;25.35;63.58
14253;BME280;7210;51.502;10.722;2023-09-18T11:28:12;99222.22;;;25.37;63.51
14253;BME280;7210;51.502;10.722;2023-09-18T11:30:56;99193.69;;;25.39;63.17
14253;BME280;7210;51.502;10.722;2023-09-18T11:33:33;99220.53;;;25.44;63.73
14253;BME280;7210;51.502;10.722;2023-09-18T11:36:05;99194.13;;;25.41;63.22
14253;BME280;7210;51.502;10.722;2023-09-18T11:38:51;99186.69;;;25.38;63.36
14253;BME280;7210;51.502;10.722;2023-09-18T11:41:22;99188.00;;;25.32;63.30
14253;BME280;7210;51.502;10.722;2023-09-18T11:43:51;99190.91;;;25.27;63.84
14253;BME280;7210;51.502;10.722;2023-09-18T11:46:20;99200.97;;;25.27;63.73
14253;BME280;7210;51.502;10.722;2023-09-18T11:48:49;99228.19;;;25.30;64.50
14253;BME280;7210;51.502;10.722;2023-09-18T11:51:23;99220.69;;;25.27;64.89
14253;BME280;7210;51.502;10.722;2023-09-18T11:53:57;99223.66;;;25.34;64.44
14253;BME280;7210;51.502;10.722;2023-09-18T11:56:25;99202.75;;;25.23;64.45
14253;BME280;7210;51.502;10.722;2023-09-18T11:58:54;99187.63;;;25.01;64.73
14253;BME280;7210;51.502;10.722;2023-09-18T12:01:23;99216.41;;;24.85;65.97
14253;BME280;7210;51.502;10.722;2023-09-18T12:03:55;99189.19;;;24.61;66.05
14253;BME280;7210;51.502;10.722;2023-09-18T12:06:29;99199.88;;;24.78;65.75
14253;BME280;7210;51.502;10.722;2023-09-18T12:09:01;99197.75;;;24.63;66.38
14253;BME280;7210;51.502;10.722;2023-09-18T12:11:29;99214.97;;;24.59;66.40
14253;BME280;7210;51.502;10.722;2023-09-18T12:13:57;99220.69;;;24.57;66.30
14253;BME280;7210;51.502;10.722;2023-09-18T12:16:25;99231.06;;;24.55;66.94
14253;BME280;7210;51.502;10.722;2023-09-18T12:18:53;99206.41;;;24.48;66.61
14253;BME280;7210;51.502;10.722;2023-09-18T12:21:29;99182.63;;;24.33;66.65
14253;BME280;7210;51.502;10.722;2023-09-18T12:23:56;99188.88;;;24.25;67.17
14253;BME280;7210;51.502;10.722;2023-09-18T12:26:26;99200.00;;;24.24;67.53
14253;BME280;7210;51.502;10.722;2023-09-18T12:28:56;99197.66;;;24.22;68.43
14253;BME280;7210;51.502;10.722;2023-09-18T12:31:25;99220.19;;;24.26;68.29
14253;BME280;7210;51.502;10.722;2023-09-18T12:33:53;99240.91;;;24.22;68.75
14253;BME280;7210;51.502;10.722;2023-09-18T12:36:21;99237.69;;;24.20;68.83
14253;BME280;7210;51.502;10.722;2023-09-18T12:38:56;99199.34;;;23.98;68.79
14253;BME280;7210;51.502;10.722;2023-09-18T12:41:26;99215.38;;;24.03;68.99
14253;BME280;7210;51.502;10.722;2023-09-18T12:43:54;99204.13;;;23.92;69.09
14253;BME280;7210;51.502;10.722;2023-09-18T12:46:23;99212.06;;;23.89;69.57
14253;BME280;7210;51.502;10.722;2023-09-18T12:48:51;99240.81;;;24.02;69.38
14253;BME280;7210;51.502;10.722;2023-09-18T12:51:18;99232.06;;;23.96;69.85
14253;BME280;7210;51.502;10.722;2023-09-18T12:54:06;99223.50;;;23.94;69.88
14253;BME280;7210;51.502;10.722;2023-09-18T12:56:43;99225.88;;;23.96;70.13
14253;BME280;7210;51.502;10.722;2023-09-18T12:59:11;99196.19;;;23.88;69.84
14253;BME280;7210;51.502;10.722;2023-09-18T13:01:46;99203.31;;;23.92;69.73
14253;BME280;7210;51.502;10.722;2023-09-18T13:04:13;99189.50;;;23.85;70.18
14253;BME280;7210;51.502;10.722;2023-09-18T13:06:41;99204.94;;;23.76;70.42
14253;BME280;7210;51.502;10.722;2023-09-18T13:09:18;99200.66;;;23.67;70.50
14253;BME280;7210;51.502;10.722;2023-09-18T13:11:57;99197.50;;;23.65;71.07
14253;BME280;7210;51.502;10.722;2023-09-18T13:14:30;99190.19;;;23.57;70.96
14253;BME280;7210;51.502;10.722;2023-09-18T13:17:02;99220.69;;;23.66;72.10